sensor_id;sensor_type;location;lat;lon;timestamp;P1;durP1;ratioP1;P2;durP2;ratioP2
2658;SDS011;1339;53.304;10.406;2023-04-24T00:00:18;5.47;;;4.97;;
2658;SDS011;1339;53.304;10.406;2023-04-24T00:02:45;5.50;;;5.00;;
2658;SDS011;1339;53.304;10.406;2023-04-24T00:05:12;4.57;;;4.28;;
2658;SDS011;1339;53.304;10.406;2023-04-24T00:07:39;5.90;;;5.30;;
2658;SDS011;1339;53.304;10.406;2023-04-24T00:10:07;5.18;;;4.78;;
2658;SDS011;1339;53.304;10.406;2023-04-24T00:12:34;5.53;;;5.00;;
2658;SDS011;1339;53.304;10.406;2023-04-24T00:15:01;5.47;;;5.07;;
2658;SDS011;1339;53.304;10.406;2023-04-24T00:17:30;4.90;;;4.50;;
2658;SDS011;1339;53.304;10.406;2023-04-24T00:19:57;4.63;;;4.22;;
2658;SDS011;1339;53.304;10.406;2023-04-24T00:22:24;5.70;;;4.57;;
2658;SDS011;1339;53.304;10.406;2023-04-24T00:24:51;4.47;;;4.10;;
2658;SDS011;1339;53.304;10.406;2023-04-24T00:27:18;5.57;;;5.07;;
2658;SDS011;1339;53.304;10.406;2023-04-24T00:29:45;5.32;;;4.82;;
2658;SDS011;1339;53.304;10.406;2023-04-24T00:32:12;5.00;;;4.60;;
2658;SDS011;1339;53.304;10.406;2023-04-24T00:34:40;4.23;;;3.93;;
2658;SDS011;1339;53.304;10.406;2023-04-24T00:37:07;5.35;;;4.95;;
2658;SDS011;1339;53.304;10.406;2023-04-24T00:39:34;4.50;;;4.10;;
2658;SDS011;1339;53.304;10.406;2023-04-24T00:42:01;4.18;;;3.88;;
2658;SDS011;1339;53.304;10.406;2023-04-24T00:44:28;4.72;;;4.32;;
2658;SDS011;1339;53.304;10.406;2023-04-24T00:46:55;5.85;;;4.35;;
2658;SDS011;1339;53.304;10.406;2023-04-24T00:49:22;5.87;;;4.23;;
2658;SDS011;1339;53.304;10.406;2023-04-24T00:51:50;4.20;;;3.90;;
2658;SDS011;1339;53.304;10.406;2023-04-24T00:54:18;5.03;;;4.63;;
2658;SDS011;1339;53.304;10.406;2023-04-24T00:56:46;5.20;;;4.80;;
2658;SDS011;1339;53.304;10.406;2023-04-24T00:59:13;4.97;;;4.57;;
2658;SDS011;1339;53.304;10.406;2023-04-24T01:01:42;5.00;;;4.60;;
2658;SDS011;1339;53.304;10.406;2023-04-24T01:04:09;5.00;;;4.50;;
2658;SDS011;1339;53.304;10.406;2023-04-24T01:06:38;7.97;;;4.47;;
2658;SDS011;1339;53.304;10.406;2023-04-24T01:09:07;4.88;;;4.50;;
2658;SDS011;1339;53.304;10.406;2023-04-24T01:11:34;4.10;;;3.80;;
2658;SDS011;1339;53.304;10.406;2023-04-24T01:14:01;4.10;;;3.75;;
2658;SDS011;1339;53.304;10.406;2023-04-24T01:16:28;4.67;;;3.93;;
2658;SDS011;1339;53.304;10.406;2023-04-24T01:18:55;4.17;;;3.87;;
2658;SDS011;1339;53.304;10.406;2023-04-24T01:21:22;4.22;;;3.92;;
2658;SDS011;1339;53.304;10.406;2023-04-24T01:23:51;4.25;;;3.95;;
2658;SDS011;1339;53.304;10.406;2023-04-24T01:26:18;5.07;;;4.63;;
2658;SDS011;1339;53.304;10.406;2023-04-24T01:28:46;4.28;;;3.97;;
2658;SDS011;1339;53.304;10.406;2023-04-24T01:31:13;4.65;;;3.83;;
2658;SDS011;1339;53.304;10.406;2023-04-24T01:33:40;4.05;;;3.75;;
2658;SDS011;1339;53.304;10.406;2023-04-24T01:36:07;4.47;;;4.07;;
2658;SDS011;1339;53.304;10.406;2023-04-24T01:38:35;3.80;;;3.50;;
2658;SDS011;1339;53.304;10.406;2023-04-24T01:41:04;3.95;;;3.65;;
2658;SDS011;1339;53.304;10.406;2023-04-24T01:43:31;3.50;;;3.25;;
2658;SDS011;1339;53.304;10.406;2023-04-24T01:45:58;3.73;;;3.27;;
2658;SDS011;1339;53.304;10.406;2023-04-24T01:48:25;3.83;;;3.53;;
2658;SDS011;1339;53.304;10.406;2023-04-24T01:50:52;3.45;;;3.25;;
2658;SDS011;1339;53.304;10.406;2023-04-24T01:53:19;3.78;;;3.47;;
2658;SDS011;1339;53.304;10.406;2023-04-24T01:55:46;5.43;;;3.35;;
2658;SDS011;1339;53.304;10.406;2023-04-24T01:58:14;4.30;;;3.00;;
2658;SDS011;1339;53.304;10.406;2023-04-24T02:00:41;3.30;;;3.10;;
2658;SDS011;1339;53.304;10.406;2023-04-24T02:03:08;3.97;;;3.25;;
2658;SDS011;1339;53.304;10.406;2023-04-24T02:05:35;3.28;;;3.08;;
2658;SDS011;1339;53.304;10.406;2023-04-24T02:08:02;3.25;;;3.05;;
2658;SDS011;1339;53.304;10.406;2023-04-24T02:10:29;2.63;;;2.42;;
2658;SDS011;1339;53.304;10.406;2023-04-24T02:12:55;2.30;;;2.05;;
2658;SDS011;1339;53.304;10.406;2023-04-24T02:15:25;2.55;;;2.38;;
2658;SDS011;1339;53.304;10.406;2023-04-24T02:17:52;2.38;;;2.03;;
2658;SDS011;1339;53.304;10.406;2023-04-24T02:20:19;1.80;;;1.70;;
2658;SDS011;1339;53.304;10.406;2023-04-24T02:22:46;2.00;;;1.80;;
2658;SDS011;1339;53.304;10.406;2023-04-24T02:25:13;2.50;;;2.30;;
2658;SDS011;1339;53.304;10.406;2023-04-24T02:27:40;1.92;;;1.83;;
2658;SDS011;1339;53.304;10.406;2023-04-24T02:30:07;2.10;;;1.90;;
2658;SDS011;1339;53.304;10.406;2023-04-24T02:32:36;2.08;;;1.98;;
2658;SDS011;1339;53.304;10.406;2023-04-24T02:35:04;2.10;;;2.00;;
2658;SDS011;1339;53.304;10.406;2023-04-24T02:37:31;2.30;;;2.20;;
2658;SDS011;1339;53.304;10.406;2023-04-24T02:39:58;2.00;;;1.85;;
2658;SDS011;1339;53.304;10.406;2023-04-24T02:42:25;2.08;;;1.88;;
2658;SDS011;1339;53.304;10.406;2023-04-24T02:44:52;2.55;;;2.35;;
2658;SDS011;1339;53.304;10.406;2023-04-24T02:47:19;2.05;;;1.95;;
2658;SDS011;1339;53.304;10.406;2023-04-24T02:49:47;2.20;;;2.10;;
2658;SDS011;1339;53.304;10.406;2023-04-24T02:52:14;2.33;;;2.13;;
2658;SDS011;1339;53.304;10.406;2023-04-24T02:54:41;2.42;;;1.98;;
2658;SDS011;1339;53.304;10.406;2023-04-24T02:57:08;2.10;;;1.90;;
2658;SDS011;1339;53.304;10.406;2023-04-24T02:59:35;2.20;;;2.10;;
2658;SDS011;1339;53.304;10.406;2023-04-24T03:02:02;3.38;;;1.90;;
2658;SDS011;1339;53.304;10.406;2023-04-24T03:04:30;1.80;;;1.70;;
2658;SDS011;1339;53.304;10.406;2023-04-24T03:06:59;1.88;;;1.77;;
2658;SDS011;1339;53.304;10.406;2023-04-24T03:09:26;1.70;;;1.50;;
2658;SDS011;1339;53.304;10.406;2023-04-24T03:11:53;1.50;;;1.40;;
2658;SDS011;1339;53.304;10.406;2023-04-24T03:14:20;1.38;;;1.20;;
2658;SDS011;1339;53.304;10.406;2023-04-24T03:16:47;1.73;;;1.35;;
2658;SDS011;1339;53.304;10.406;2023-04-24T03:19:15;2.65;;;1.35;;
2658;SDS011;1339;53.304;10.406;2023-04-24T03:21:42;2.00;;;1.80;;
2658;SDS011;1339;53.304;10.406;2023-04-24T03:24:10;2.30;;;1.60;;
2658;SDS011;1339;53.304;10.406;2023-04-24T03:26:37;1.50;;;1.35;;
2658;SDS011;1339;53.304;10.406;2023-04-24T03:29:04;1.85;;;1.75;;
2658;SDS011;1339;53.304;10.406;2023-04-24T03:31:31;2.20;;;2.10;;
2658;SDS011;1339;53.304;10.406;2023-04-24T03:33:58;1.90;;;1.80;;
2658;SDS011;1339;53.304;10.406;2023-04-24T03:36:25;1.60;;;1.50;;
2658;SDS011;1339;53.304;10.406;2023-04-24T03:38:52;1.55;;;1.45;;
2658;SDS011;1339;53.304;10.406;2023-04-24T03:41:20;2.03;;;1.58;;
2658;SDS011;1339;53.304;10.406;2023-04-24T03:43:47;1.65;;;1.55;;
2658;SDS011;1339;53.304;10.406;2023-04-24T03:46:14;1.80;;;1.70;;
2658;SDS011;1339;53.304;10.406;2023-04-24T03:48:41;2.70;;;1.50;;
2658;SDS011;1339;53.304;10.406;2023-04-24T03:51:08;1.42;;;1.33;;
2658;SDS011;1339;53.304;10.406;2023-04-24T03:53:35;1.27;;;1.17;;
2658;SDS011;1339;53.304;10.406;2023-04-24T03:56:02;1.40;;;1.30;;
2658;SDS011;1339;53.304;10.406;2023-04-24T03:58:31;1.48;;;1.35;;
2658;SDS011;1339;53.304;10.406;2023-04-24T04:00:58;1.50;;;1.40;;
2658;SDS011;1339;53.304;10.406;2023-04-24T04:03:25;1.52;;;1.30;;
2658;SDS011;1339;53.304;10.406;2023-04-24T04:05:52;2.10;;;1.55;;
2658;SDS011;1339;53.304;10.406;2023-04-24T04:08:19;3.20;;;1.10;;
2658;SDS011;1339;53.304;10.406;2023-04-24T04:10:46;1.67;;;1.58;;
2658;SDS011;1339;53.304;10.406;2023-04-24T04:13:13;1.42;;;1.33;;
2658;SDS011;1339;53.304;10.406;2023-04-24T04:15:41;1.33;;;1.23;;
2658;SDS011;1339;53.304;10.406;2023-04-24T04:18:08;1.85;;;1.20;;
2658;SDS011;1339;53.304;10.406;2023-04-24T04:20:35;1.58;;;1.48;;
2658;SDS011;1339;53.304;10.406;2023-04-24T04:23:01;1.65;;;1.27;;
2658;SDS011;1339;53.304;10.406;2023-04-24T04:25:28;1.40;;;1.30;;
2658;SDS011;1339;53.304;10.406;2023-04-24T04:27:55;2.38;;;1.40;;
2658;SDS011;1339;53.304;10.406;2023-04-24T04:30:24;1.90;;;1.60;;
2658;SDS011;1339;53.304;10.406;2023-04-24T04:32:52;1.30;;;1.20;;
2658;SDS011;1339;53.304;10.406;2023-04-24T04:35:20;1.45;;;1.35;;
2658;SDS011;1339;53.304;10.406;2023-04-24T04:37:47;1.58;;;1.48;;
2658;SDS011;1339;53.304;10.406;2023-04-24T04:40:13;1.30;;;1.20;;
2658;SDS011;1339;53.304;10.406;2023-04-24T04:42:40;1.13;;;1.02;;
2658;SDS011;1339;53.304;10.406;2023-04-24T04:45:10;1.20;;;1.10;;
2658;SDS011;1339;53.304;10.406;2023-04-24T04:47:37;1.45;;;1.10;;
2658;SDS011;1339;53.304;10.406;2023-04-24T04:50:07;1.25;;;1.15;;
2658;SDS011;1339;53.304;10.406;2023-04-24T04:52:34;1.70;;;1.60;;
2658;SDS011;1339;53.304;10.406;2023-04-24T04:55:01;1.52;;;1.42;;
2658;SDS011;1339;53.304;10.406;2023-04-24T04:57:28;2.10;;;1.65;;
2658;SDS011;1339;53.304;10.406;2023-04-24T04:59:55;1.75;;;1.65;;
2658;SDS011;1339;53.304;10.406;2023-04-24T05:02:22;1.50;;;1.40;;
2658;SDS011;1339;53.304;10.406;2023-04-24T05:04:49;1.10;;;1.00;;
2658;SDS011;1339;53.304;10.406;2023-04-24T05:07:17;1.60;;;1.50;;
2658;SDS011;1339;53.304;10.406;2023-04-24T05:09:44;1.30;;;1.20;;
2658;SDS011;1339;53.304;10.406;2023-04-24T05:12:11;1.58;;;1.48;;
2658;SDS011;1339;53.304;10.406;2023-04-24T05:14:38;3.08;;;1.58;;
2658;SDS011;1339;53.304;10.406;2023-04-24T05:17:05;1.63;;;1.52;;
2658;SDS011;1339;53.304;10.406;2023-04-24T05:19:32;1.60;;;1.30;;
2658;SDS011;1339;53.304;10.406;2023-04-24T05:22:00;1.60;;;1.50;;
2658;SDS011;1339;53.304;10.406;2023-04-24T05:24:30;1.45;;;1.35;;
2658;SDS011;1339;53.304;10.406;2023-04-24T05:26:58;1.65;;;1.13;;
2658;SDS011;1339;53.304;10.406;2023-04-24T05:29:25;1.95;;;1.38;;
2658;SDS011;1339;53.304;10.406;2023-04-24T05:31:52;1.98;;;1.67;;
2658;SDS011;1339;53.304;10.406;2023-04-24T05:34:19;1.40;;;1.20;;
2658;SDS011;1339;53.304;10.406;2023-04-24T05:36:46;2.28;;;2.08;;
2658;SDS011;1339;53.304;10.406;2023-04-24T05:39:13;1.75;;;1.40;;
2658;SDS011;1339;53.304;10.406;2023-04-24T05:41:41;1.30;;;1.20;;
2658;SDS011;1339;53.304;10.406;2023-04-24T05:44:08;2.25;;;1.88;;
2658;SDS011;1339;53.304;10.406;2023-04-24T05:46:35;1.67;;;1.52;;
2658;SDS011;1339;53.304;10.406;2023-04-24T05:49:02;1.85;;;1.52;;
2658;SDS011;1339;53.304;10.406;2023-04-24T05:51:30;1.52;;;1.42;;
2658;SDS011;1339;53.304;10.406;2023-04-24T05:53:57;2.28;;;1.70;;
2658;SDS011;1339;53.304;10.406;2023-04-24T05:56:24;1.52;;;1.42;;
2658;SDS011;1339;53.304;10.406;2023-04-24T05:58:52;1.38;;;1.27;;
2658;SDS011;1339;53.304;10.406;2023-04-24T06:01:19;1.88;;;1.60;;
2658;SDS011;1339;53.304;10.406;2023-04-24T06:03:46;2.95;;;1.65;;
2658;SDS011;1339;53.304;10.406;2023-04-24T06:06:13;1.38;;;1.27;;
2658;SDS011;1339;53.304;10.406;2023-04-24T06:08:41;1.55;;;1.45;;
2658;SDS011;1339;53.304;10.406;2023-04-24T06:11:09;1.83;;;1.73;;
2658;SDS011;1339;53.304;10.406;2023-04-24T06:13:36;2.38;;;1.70;;
2658;SDS011;1339;53.304;10.406;2023-04-24T06:16:04;1.92;;;1.83;;
2658;SDS011;1339;53.304;10.406;2023-04-24T06:18:31;1.80;;;1.70;;
2658;SDS011;1339;53.304;10.406;2023-04-24T06:20:58;1.40;;;1.30;;
2658;SDS011;1339;53.304;10.406;2023-04-24T06:23:25;1.50;;;1.40;;
2658;SDS011;1339;53.304;10.406;2023-04-24T06:25:52;1.88;;;1.67;;
2658;SDS011;1339;53.304;10.406;2023-04-24T06:28:19;2.50;;;1.67;;
2658;SDS011;1339;53.304;10.406;2023-04-24T06:30:46;1.40;;;1.30;;
2658;SDS011;1339;53.304;10.406;2023-04-24T06:33:14;1.58;;;1.33;;
2658;SDS011;1339;53.304;10.406;2023-04-24T06:35:41;1.80;;;1.70;;
2658;SDS011;1339;53.304;10.406;2023-04-24T06:38:08;1.63;;;1.33;;
2658;SDS011;1339;53.304;10.406;2023-04-24T06:40:35;1.48;;;1.38;;
2658;SDS011;1339;53.304;10.406;2023-04-24T06:43:02;1.42;;;1.23;;
2658;SDS011;1339;53.304;10.406;2023-04-24T06:45:29;1.38;;;1.27;;
2658;SDS011;1339;53.304;10.406;2023-04-24T06:47:56;1.23;;;1.10;;
2658;SDS011;1339;53.304;10.406;2023-04-24T06:50:24;1.52;;;1.40;;
2658;SDS011;1339;53.304;10.406;2023-04-24T06:52:51;1.20;;;1.10;;
2658;SDS011;1339;53.304;10.406;2023-04-24T06:55:18;1.50;;;1.40;;
2658;SDS011;1339;53.304;10.406;2023-04-24T06:57:45;1.50;;;1.08;;
2658;SDS011;1339;53.304;10.406;2023-04-24T07:00:12;1.87;;;1.33;;
2658;SDS011;1339;53.304;10.406;2023-04-24T07:02:39;1.20;;;1.10;;
2658;SDS011;1339;53.304;10.406;2023-04-24T07:05:06;1.70;;;1.23;;
2658;SDS011;1339;53.304;10.406;2023-04-24T07:07:35;1.98;;;1.27;;
2658;SDS011;1339;53.304;10.406;2023-04-24T07:10:03;1.33;;;1.10;;
2658;SDS011;1339;53.304;10.406;2023-04-24T07:12:30;2.22;;;1.40;;
2658;SDS011;1339;53.304;10.406;2023-04-24T07:14:57;2.33;;;1.10;;
2658;SDS011;1339;53.304;10.406;2023-04-24T07:17:25;1.87;;;1.30;;
2658;SDS011;1339;53.304;10.406;2023-04-24T07:19:52;1.50;;;1.40;;
2658;SDS011;1339;53.304;10.406;2023-04-24T07:22:18;2.70;;;1.40;;
2658;SDS011;1339;53.304;10.406;2023-04-24T07:24:47;1.57;;;1.17;;
2658;SDS011;1339;53.304;10.406;2023-04-24T07:27:14;1.20;;;1.10;;
2658;SDS011;1339;53.304;10.406;2023-04-24T07:29:41;1.37;;;1.10;;
2658;SDS011;1339;53.304;10.406;2023-04-24T07:32:08;1.83;;;1.00;;
2658;SDS011;1339;53.304;10.406;2023-04-24T07:34:35;1.57;;;1.30;;
2658;SDS011;1339;53.304;10.406;2023-04-24T07:37:02;1.73;;;1.00;;
2658;SDS011;1339;53.304;10.406;2023-04-24T07:39:29;1.30;;;0.90;;
2658;SDS011;1339;53.304;10.406;2023-04-24T07:41:57;2.03;;;1.93;;
2658;SDS011;1339;53.304;10.406;2023-04-24T07:44:26;1.03;;;0.93;;
2658;SDS011;1339;53.304;10.406;2023-04-24T07:46:53;2.20;;;1.50;;
2658;SDS011;1339;53.304;10.406;2023-04-24T07:49:20;1.00;;;0.87;;
2658;SDS011;1339;53.304;10.406;2023-04-24T07:51:47;1.30;;;1.20;;
2658;SDS011;1339;53.304;10.406;2023-04-24T07:54:14;2.70;;;0.80;;
2658;SDS011;1339;53.304;10.406;2023-04-24T07:56:41;1.00;;;0.90;;
2658;SDS011;1339;53.304;10.406;2023-04-24T07:59:10;1.20;;;0.80;;
2658;SDS011;1339;53.304;10.406;2023-04-24T08:01:37;1.27;;;1.17;;
2658;SDS011;1339;53.304;10.406;2023-04-24T08:04:04;1.27;;;0.97;;
2658;SDS011;1339;53.304;10.406;2023-04-24T08:06:31;1.00;;;0.90;;
2658;SDS011;1339;53.304;10.406;2023-04-24T08:08:58;1.20;;;1.00;;
2658;SDS011;1339;53.304;10.406;2023-04-24T08:11:26;1.20;;;1.10;;
2658;SDS011;1339;53.304;10.406;2023-04-24T08:13:53;1.10;;;1.00;;
2658;SDS011;1339;53.304;10.406;2023-04-24T08:16:21;1.60;;;1.40;;
2658;SDS011;1339;53.304;10.406;2023-04-24T08:18:48;1.23;;;1.13;;
2658;SDS011;1339;53.304;10.406;2023-04-24T08:21:15;2.53;;;1.30;;
2658;SDS011;1339;53.304;10.406;2023-04-24T08:23:43;1.53;;;1.17;;
2658;SDS011;1339;53.304;10.406;2023-04-24T08:26:10;1.38;;;1.27;;
2658;SDS011;1339;53.304;10.406;2023-04-24T08:28:37;2.38;;;1.70;;
2658;SDS011;1339;53.304;10.406;2023-04-24T08:31:04;4.20;;;2.00;;
2658;SDS011;1339;53.304;10.406;2023-04-24T08:33:33;2.67;;;1.97;;
2658;SDS011;1339;53.304;10.406;2023-04-24T08:36:00;1.70;;;1.60;;
2658;SDS011;1339;53.304;10.406;2023-04-24T08:38:27;3.40;;;1.43;;
2658;SDS011;1339;53.304;10.406;2023-04-24T08:40:54;3.83;;;2.30;;
2658;SDS011;1339;53.304;10.406;2023-04-24T08:43:21;2.50;;;2.20;;
2658;SDS011;1339;53.304;10.406;2023-04-24T08:45:48;2.53;;;2.33;;
2658;SDS011;1339;53.304;10.406;2023-04-24T08:48:15;3.33;;;2.50;;
2658;SDS011;1339;53.304;10.406;2023-04-24T08:50:44;3.00;;;2.80;;
2658;SDS011;1339;53.304;10.406;2023-04-24T08:53:11;4.33;;;2.50;;
2658;SDS011;1339;53.304;10.406;2023-04-24T08:55:38;3.50;;;3.20;;
2658;SDS011;1339;53.304;10.406;2023-04-24T08:58:05;2.37;;;2.17;;
2658;SDS011;1339;53.304;10.406;2023-04-24T09:00:32;2.60;;;2.40;;
2658;SDS011;1339;53.304;10.406;2023-04-24T09:03:00;3.40;;;3.10;;
2658;SDS011;1339;53.304;10.406;2023-04-24T09:05:27;4.27;;;2.90;;
2658;SDS011;1339;53.304;10.406;2023-04-24T09:07:56;2.80;;;2.60;;
2658;SDS011;1339;53.304;10.406;2023-04-24T09:10:24;3.10;;;2.90;;
2658;SDS011;1339;53.304;10.406;2023-04-24T09:12:51;3.10;;;2.90;;
2658;SDS011;1339;53.304;10.406;2023-04-24T09:15:18;4.20;;;3.35;;
2658;SDS011;1339;53.304;10.406;2023-04-24T09:17:46;4.43;;;4.03;;
2658;SDS011;1339;53.304;10.406;2023-04-24T09:20:13;5.90;;;5.40;;
2658;SDS011;1339;53.304;10.406;2023-04-24T09:22:40;5.55;;;4.80;;
2658;SDS011;1339;53.304;10.406;2023-04-24T09:25:09;6.30;;;5.70;;
2658;SDS011;1339;53.304;10.406;2023-04-24T09:27:37;5.53;;;5.03;;
2658;SDS011;1339;53.304;10.406;2023-04-24T09:30:08;5.50;;;4.93;;
2658;SDS011;1339;53.304;10.406;2023-04-24T09:32:35;4.60;;;4.30;;
2658;SDS011;1339;53.304;10.406;2023-04-24T09:35:06;4.70;;;4.30;;
2658;SDS011;1339;53.304;10.406;2023-04-24T09:37:34;5.07;;;4.60;;
2658;SDS011;1339;53.304;10.406;2023-04-24T09:42:52;4.93;;;4.50;;
2658;SDS011;1339;53.304;10.406;2023-04-24T09:45:20;6.17;;;5.63;;
2658;SDS011;1339;53.304;10.406;2023-04-24T09:47:51;5.70;;;5.20;;
2658;SDS011;1339;53.304;10.406;2023-04-24T09:50:18;6.27;;;5.63;;
2658;SDS011;1339;53.304;10.406;2023-04-24T09:52:46;5.70;;;5.20;;
2658;SDS011;1339;53.304;10.406;2023-04-24T09:55:15;6.77;;;5.67;;
2658;SDS011;1339;53.304;10.406;2023-04-24T09:57:49;5.83;;;5.27;;
2658;SDS011;1339;53.304;10.406;2023-04-24T10:00:22;5.20;;;4.70;;
2658;SDS011;1339;53.304;10.406;2023-04-24T10:02:50;6.35;;;5.85;;
2658;SDS011;1339;53.304;10.406;2023-04-24T10:05:18;5.83;;;5.37;;
2658;SDS011;1339;53.304;10.406;2023-04-24T10:07:45;7.60;;;5.30;;
2658;SDS011;1339;53.304;10.406;2023-04-24T10:10:12;6.30;;;5.70;;
2658;SDS011;1339;53.304;10.406;2023-04-24T10:12:40;7.50;;;6.07;;
2658;SDS011;1339;53.304;10.406;2023-04-24T10:15:07;6.30;;;5.80;;
2658;SDS011;1339;53.304;10.406;2023-04-24T10:17:39;6.77;;;6.17;;
2658;SDS011;1339;53.304;10.406;2023-04-24T10:20:07;6.03;;;5.27;;
2658;SDS011;1339;53.304;10.406;2023-04-24T10:22:34;6.80;;;6.20;;
2658;SDS011;1339;53.304;10.406;2023-04-24T10:25:02;6.90;;;5.70;;
2658;SDS011;1339;53.304;10.406;2023-04-24T10:27:31;6.30;;;5.70;;
2658;SDS011;1339;53.304;10.406;2023-04-24T10:29:58;7.03;;;6.33;;
2658;SDS011;1339;53.304;10.406;2023-04-24T10:32:26;7.30;;;6.53;;
2658;SDS011;1339;53.304;10.406;2023-04-24T10:34:55;7.60;;;6.90;;
2658;SDS011;1339;53.304;10.406;2023-04-24T10:37:22;6.70;;;6.10;;
2658;SDS011;1339;53.304;10.406;2023-04-24T10:39:50;7.30;;;6.70;;
2658;SDS011;1339;53.304;10.406;2023-04-24T10:42:19;6.77;;;6.17;;
2658;SDS011;1339;53.304;10.406;2023-04-24T10:44:47;6.93;;;6.33;;
2658;SDS011;1339;53.304;10.406;2023-04-24T10:47:14;8.10;;;6.93;;
2658;SDS011;1339;53.304;10.406;2023-04-24T10:49:41;6.40;;;5.80;;
2658;SDS011;1339;53.304;10.406;2023-04-24T10:52:10;6.60;;;6.10;;
2658;SDS011;1339;53.304;10.406;2023-04-24T10:54:41;7.90;;;6.40;;
2658;SDS011;1339;53.304;10.406;2023-04-24T10:57:27;6.90;;;5.20;;
2658;SDS011;1339;53.304;10.406;2023-04-24T11:02:40;6.70;;;6.17;;
2658;SDS011;1339;53.304;10.406;2023-04-24T11:05:14;6.30;;;5.77;;
2658;SDS011;1339;53.304;10.406;2023-04-24T11:10:29;6.30;;;5.80;;
2658;SDS011;1339;53.304;10.406;2023-04-24T11:12:56;5.20;;;4.80;;
2658;SDS011;1339;53.304;10.406;2023-04-24T11:15:22;6.77;;;6.17;;
2658;SDS011;1339;53.304;10.406;2023-04-24T11:17:49;7.50;;;6.23;;
2658;SDS011;1339;53.304;10.406;2023-04-24T11:20:22;6.67;;;6.17;;
2658;SDS011;1339;53.304;10.406;2023-04-24T11:22:52;7.83;;;7.13;;
2658;SDS011;1339;53.304;10.406;2023-04-24T11:25:20;7.40;;;5.80;;
2658;SDS011;1339;53.304;10.406;2023-04-24T11:27:49;5.63;;;5.13;;
2658;SDS011;1339;53.304;10.406;2023-04-24T11:30:16;5.73;;;5.23;;
2658;SDS011;1339;53.304;10.406;2023-04-24T11:32:46;5.43;;;4.93;;
2658;SDS011;1339;53.304;10.406;2023-04-24T11:35:15;4.63;;;4.20;;
2658;SDS011;1339;53.304;10.406;2023-04-24T11:37:42;4.30;;;4.00;;
2658;SDS011;1339;53.304;10.406;2023-04-24T11:40:11;4.23;;;3.93;;
2658;SDS011;1339;53.304;10.406;2023-04-24T11:42:38;4.13;;;3.83;;
2658;SDS011;1339;53.304;10.406;2023-04-24T11:45:11;3.40;;;2.83;;
2658;SDS011;1339;53.304;10.406;2023-04-24T11:47:38;6.30;;;3.63;;
2658;SDS011;1339;53.304;10.406;2023-04-24T11:50:06;3.40;;;3.10;;
2658;SDS011;1339;53.304;10.406;2023-04-24T11:52:36;2.80;;;2.60;;
2658;SDS011;1339;53.304;10.406;2023-04-24T11:55:03;5.17;;;3.53;;
2658;SDS011;1339;53.304;10.406;2023-04-24T11:57:30;3.97;;;3.20;;
2658;SDS011;1339;53.304;10.406;2023-04-24T11:59:59;3.70;;;3.40;;
2658;SDS011;1339;53.304;10.406;2023-04-24T12:02:28;4.17;;;3.77;;
2658;SDS011;1339;53.304;10.406;2023-04-24T12:04:55;3.17;;;2.97;;
2658;SDS011;1339;53.304;10.406;2023-04-24T12:07:23;5.23;;;3.87;;
2658;SDS011;1339;53.304;10.406;2023-04-24T12:09:54;3.63;;;3.33;;
2658;SDS011;1339;53.304;10.406;2023-04-24T12:12:23;4.30;;;4.00;;
2658;SDS011;1339;53.304;10.406;2023-04-24T12:14:52;4.73;;;4.33;;
2658;SDS011;1339;53.304;10.406;2023-04-24T12:17:23;4.27;;;3.87;;
2658;SDS011;1339;53.304;10.406;2023-04-24T12:19:51;4.97;;;4.50;;
2658;SDS011;1339;53.304;10.406;2023-04-24T12:22:18;4.60;;;4.20;;
2658;SDS011;1339;53.304;10.406;2023-04-24T12:24:55;3.60;;;3.30;;
2658;SDS011;1339;53.304;10.406;2023-04-24T12:27:22;3.73;;;3.43;;
2658;SDS011;1339;53.304;10.406;2023-04-24T12:29:52;4.27;;;3.87;;
2658;SDS011;1339;53.304;10.406;2023-04-24T12:32:20;4.37;;;4.03;;
2658;SDS011;1339;53.304;10.406;2023-04-24T12:34:47;3.90;;;3.60;;
2658;SDS011;1339;53.304;10.406;2023-04-24T12:37:17;4.30;;;3.90;;
2658;SDS011;1339;53.304;10.406;2023-04-24T12:39:57;3.47;;;3.27;;
2658;SDS011;1339;53.304;10.406;2023-04-24T12:42:25;4.40;;;4.00;;
2658;SDS011;1339;53.304;10.406;2023-04-24T12:44:55;4.30;;;3.90;;
2658;SDS011;1339;53.304;10.406;2023-04-24T12:47:22;3.70;;;3.40;;
2658;SDS011;1339;53.304;10.406;2023-04-24T12:49:49;3.80;;;3.50;;
2658;SDS011;1339;53.304;10.406;2023-04-24T12:52:18;5.60;;;3.40;;
2658;SDS011;1339;53.304;10.406;2023-04-24T12:54:45;3.30;;;3.10;;
2658;SDS011;1339;53.304;10.406;2023-04-24T12:57:12;5.90;;;3.83;;
2658;SDS011;1339;53.304;10.406;2023-04-24T12:59:40;2.97;;;2.80;;
2658;SDS011;1339;53.304;10.406;2023-04-24T13:02:09;3.83;;;3.30;;
2658;SDS011;1339;53.304;10.406;2023-04-24T13:04:36;3.57;;;3.30;;
2658;SDS011;1339;53.304;10.406;2023-04-24T13:07:03;3.47;;;3.27;;
2658;SDS011;1339;53.304;10.406;2023-04-24T13:09:31;3.30;;;3.07;;
2658;SDS011;1339;53.304;10.406;2023-04-24T13:11:59;4.53;;;3.33;;
2658;SDS011;1339;53.304;10.406;2023-04-24T13:14:26;3.27;;;2.90;;
2658;SDS011;1339;53.304;10.406;2023-04-24T13:16:53;3.40;;;3.10;;
2658;SDS011;1339;53.304;10.406;2023-04-24T13:19:20;3.80;;;3.40;;
2658;SDS011;1339;53.304;10.406;2023-04-24T13:21:47;3.27;;;2.97;;
2658;SDS011;1339;53.304;10.406;2023-04-24T13:24:14;3.57;;;3.37;;
2658;SDS011;1339;53.304;10.406;2023-04-24T13:26:43;3.00;;;2.80;;
2658;SDS011;1339;53.304;10.406;2023-04-24T13:29:10;2.47;;;2.37;;
2658;SDS011;1339;53.304;10.406;2023-04-24T13:31:37;4.70;;;2.70;;
2658;SDS011;1339;53.304;10.406;2023-04-24T13:34:04;2.07;;;1.97;;
2658;SDS011;1339;53.304;10.406;2023-04-24T13:36:31;2.50;;;2.30;;
2658;SDS011;1339;53.304;10.406;2023-04-24T13:38:58;3.50;;;2.50;;
2658;SDS011;1339;53.304;10.406;2023-04-24T13:41:25;3.00;;;2.60;;
2658;SDS011;1339;53.304;10.406;2023-04-24T13:43:53;4.20;;;3.87;;
2658;SDS011;1339;53.304;10.406;2023-04-24T13:46:20;3.57;;;2.20;;
2658;SDS011;1339;53.304;10.406;2023-04-24T13:48:47;2.40;;;2.20;;
2658;SDS011;1339;53.304;10.406;2023-04-24T13:51:14;2.27;;;2.03;;
2658;SDS011;1339;53.304;10.406;2023-04-24T13:53:41;2.40;;;2.20;;
2658;SDS011;1339;53.304;10.406;2023-04-24T13:56:11;3.03;;;2.70;;
2658;SDS011;1339;53.304;10.406;2023-04-24T13:58:39;2.17;;;2.07;;
2658;SDS011;1339;53.304;10.406;2023-04-24T14:01:07;2.50;;;2.30;;
2658;SDS011;1339;53.304;10.406;2023-04-24T14:03:35;2.70;;;2.50;;
2658;SDS011;1339;53.304;10.406;2023-04-24T14:06:03;3.53;;;2.43;;
2658;SDS011;1339;53.304;10.406;2023-04-24T14:08:31;2.83;;;2.47;;
2658;SDS011;1339;53.304;10.406;2023-04-24T14:10:58;2.83;;;2.63;;
2658;SDS011;1339;53.304;10.406;2023-04-24T14:13:25;2.70;;;1.97;;
2658;SDS011;1339;53.304;10.406;2023-04-24T14:15:52;2.20;;;2.00;;
2658;SDS011;1339;53.304;10.406;2023-04-24T14:18:20;2.27;;;2.17;;
2658;SDS011;1339;53.304;10.406;2023-04-24T14:20:47;1.87;;;1.77;;
2658;SDS011;1339;53.304;10.406;2023-04-24T14:23:15;3.20;;;2.40;;
2658;SDS011;1339;53.304;10.406;2023-04-24T14:25:42;2.67;;;2.30;;
2658;SDS011;1339;53.304;10.406;2023-04-24T14:28:10;2.33;;;2.13;;
2658;SDS011;1339;53.304;10.406;2023-04-24T14:30:37;2.40;;;2.20;;
2658;SDS011;1339;53.304;10.406;2023-04-24T14:33:05;2.70;;;2.50;;
2658;SDS011;1339;53.304;10.406;2023-04-24T14:35:33;2.73;;;2.53;;
2658;SDS011;1339;53.304;10.406;2023-04-24T14:38:00;3.20;;;2.92;;
2658;SDS011;1339;53.304;10.406;2023-04-24T14:40:27;4.85;;;3.55;;
2658;SDS011;1339;53.304;10.406;2023-04-24T14:42:56;2.53;;;2.10;;
2658;SDS011;1339;53.304;10.406;2023-04-24T14:45:23;2.63;;;2.42;;
2658;SDS011;1339;53.304;10.406;2023-04-24T14:47:50;2.40;;;2.20;;
2658;SDS011;1339;53.304;10.406;2023-04-24T14:50:17;4.13;;;2.58;;
2658;SDS011;1339;53.304;10.406;2023-04-24T14:52:45;3.03;;;2.75;;
2658;SDS011;1339;53.304;10.406;2023-04-24T14:55:12;2.10;;;1.90;;
2658;SDS011;1339;53.304;10.406;2023-04-24T14:57:39;1.00;;;0.90;;
2658;SDS011;1339;53.304;10.406;2023-04-24T15:00:06;1.80;;;1.70;;
2658;SDS011;1339;53.304;10.406;2023-04-24T15:02:35;1.20;;;1.10;;
2658;SDS011;1339;53.304;10.406;2023-04-24T15:05:05;1.08;;;0.98;;
2658;SDS011;1339;53.304;10.406;2023-04-24T15:07:32;0.77;;;0.70;;
2658;SDS011;1339;53.304;10.406;2023-04-24T15:10:01;0.80;;;0.68;;